createdAt,value
2024-01-20T00:01:43.527Z,81.90
2024-01-20T00:04:13.180Z,82.00
2024-01-20T00:06:44.657Z,81.60
2024-01-20T00:09:14.608Z,81.20
2024-01-20T00:11:43.974Z,81.50
2024-01-20T00:14:13.356Z,81.50
2024-01-20T00:16:42.816Z,81.50
2024-01-20T00:19:12.825Z,81.50
2024-01-20T00:21:42.426Z,81.70
2024-01-20T00:24:11.552Z,81.70
2024-01-20T00:26:40.668Z,81.70
2024-01-20T00:29:10.257Z,81.60
2024-01-20T00:31:39.854Z,81.40
2024-01-20T00:34:09.113Z,81.40
2024-01-20T00:36:38.376Z,81.30
2024-01-20T00:39:07.918Z,81.50
2024-01-20T00:41:37.030Z,81.10
2024-01-20T00:44:06.382Z,80.80
2024-01-20T00:46:35.600Z,81.70
2024-01-20T00:49:05.280Z,81.20
2024-01-20T00:51:34.831Z,80.90
2024-01-20T00:54:03.981Z,80.90
2024-01-20T00:56:33.469Z,80.60
2024-01-20T00:59:02.725Z,80.30
2024-01-20T01:01:31.897Z,80.40
2024-01-20T01:04:01.129Z,80.30
2024-01-20T01:06:30.322Z,79.90
2024-01-20T01:08:59.460Z,79.80
2024-01-20T01:11:28.634Z,79.90
2024-01-20T01:13:57.988Z,79.80
2024-01-20T01:16:27.194Z,79.50
2024-01-20T01:18:56.382Z,79.40
2024-01-20T01:21:25.617Z,78.90
2024-01-20T01:23:54.826Z,78.90
2024-01-20T01:26:27.673Z,79.00
2024-01-20T01:28:58.565Z,78.70
2024-01-20T01:31:27.839Z,78.80
2024-01-20T01:33:57.015Z,78.40
2024-01-20T01:36:26.542Z,78.00
2024-01-20T01:38:55.862Z,77.70
2024-01-20T01:41:25.059Z,77.70
2024-01-20T01:43:55.252Z,77.50
2024-01-20T01:46:24.483Z,77.20
2024-01-20T01:48:53.850Z,77.10
2024-01-20T01:51:23.476Z,76.70
2024-01-20T01:53:54.317Z,76.50
2024-01-20T01:56:24.007Z,76.30
2024-01-20T01:58:53.192Z,76.20
2024-01-20T02:01:22.363Z,76.10
2024-01-20T02:03:52.127Z,75.50
2024-01-20T02:06:21.605Z,74.90
2024-01-20T02:08:50.883Z,74.60
2024-01-20T02:11:20.832Z,73.80
2024-01-20T02:13:50.047Z,73.10
2024-01-20T02:16:19.510Z,72.20
2024-01-20T02:18:48.785Z,71.80
2024-01-20T02:21:18.064Z,71.80
2024-01-20T02:23:51.227Z,71.30
2024-01-20T02:26:20.448Z,70.70
2024-01-20T02:28:50.827Z,70.30
2024-01-20T02:31:20.065Z,70.00
